Terminal Aerodrome Forecast
Issued by NWS

Home | Current Version | Previous Version | Text Only | Print | Product List | Glossary Off
Versions: 1 2 3 4 5 6 7 8 9 10 11 12 13 14 15 16 17 18 19 20 21 22 23 24

000
FTUS43 KBIS 311223 AAA
TAFMOT
TAF AMD
KMOT 311223Z 3112/0112 26017G25KT 3SM RA BR SCT005 BKN024 OVC030
      TEMPO 3112/3115 5SM -RA BR BKN005 OVC012
     FM311500 29016G24KT 6SM -SHRA OVC015
     FM312200 31020G29KT P6SM OVC008
     FM010500 30016KT P6SM OVC008=

USA.gov is the U.S. government's official web portal to all federal, state and local government web resources and services.